sensor_id;sensor_type;location;lat;lon;timestamp;P1;durP1;ratioP1;P2;durP2;ratioP2
21266;SDS011;10791;53.108;18.326;2023-07-16T00:02:03;9.93;;;6.40;;
21266;SDS011;10791;53.108;18.326;2023-07-16T00:07:06;11.70;;;6.22;;
21266;SDS011;10791;53.108;18.326;2023-07-16T00:12:10;8.15;;;6.60;;
21266;SDS011;10791;53.108;18.326;2023-07-16T00:17:13;9.35;;;6.80;;
21266;SDS011;10791;53.108;18.326;2023-07-16T00:22:16;10.32;;;6.68;;
21266;SDS011;10791;53.108;18.326;2023-07-16T00:27:19;10.65;;;6.75;;
21266;SDS011;10791;53.108;18.326;2023-07-16T00:32:22;9.90;;;7.90;;
21266;SDS011;10791;53.108;18.326;2023-07-16T00:37:25;8.13;;;5.80;;
21266;SDS011;10791;53.108;18.326;2023-07-16T00:42:28;11.35;;;6.60;;
21266;SDS011;10791;53.108;18.326;2023-07-16T00:47:32;8.82;;;6.47;;
21266;SDS011;10791;53.108;18.326;2023-07-16T00:52:35;7.80;;;6.50;;
21266;SDS011;10791;53.108;18.326;2023-07-16T00:57:38;10.50;;;7.72;;
21266;SDS011;10791;53.108;18.326;2023-07-16T01:02:42;8.52;;;6.95;;
21266;SDS011;10791;53.108;18.326;2023-07-16T01:07:48;8.75;;;6.20;;
21266;SDS011;10791;53.108;18.326;2023-07-16T01:13:00;7.07;;;6.32;;
21266;SDS011;10791;53.108;18.326;2023-07-16T01:18:04;9.23;;;6.13;;
21266;SDS011;10791;53.108;18.326;2023-07-16T01:23:13;10.55;;;6.60;;
21266;SDS011;10791;53.108;18.326;2023-07-16T01:33:53;7.90;;;6.30;;
21266;SDS011;10791;53.108;18.326;2023-07-16T01:38:58;8.60;;;6.88;;
21266;SDS011;10791;53.108;18.326;2023-07-16T01:44:01;9.35;;;6.53;;
21266;SDS011;10791;53.108;18.326;2023-07-16T01:49:04;6.97;;;6.07;;
21266;SDS011;10791;53.108;18.326;2023-07-16T01:54:08;8.68;;;5.85;;
21266;SDS011;10791;53.108;18.326;2023-07-16T01:59:11;7.53;;;5.85;;
21266;SDS011;10791;53.108;18.326;2023-07-16T02:04:14;8.77;;;6.95;;
21266;SDS011;10791;53.108;18.326;2023-07-16T02:09:17;8.60;;;6.25;;
21266;SDS011;10791;53.108;18.326;2023-07-16T02:14:20;7.95;;;6.40;;
21266;SDS011;10791;53.108;18.326;2023-07-16T02:19:24;9.13;;;6.40;;
21266;SDS011;10791;53.108;18.326;2023-07-16T02:24:28;11.93;;;6.55;;
21266;SDS011;10791;53.108;18.326;2023-07-16T02:29:31;9.05;;;6.72;;
21266;SDS011;10791;53.108;18.326;2023-07-16T02:34:34;10.30;;;6.25;;
21266;SDS011;10791;53.108;18.326;2023-07-16T02:39:41;10.57;;;6.95;;
21266;SDS011;10791;53.108;18.326;2023-07-16T02:44:47;10.57;;;6.97;;
21266;SDS011;10791;53.108;18.326;2023-07-16T02:49:51;7.80;;;6.50;;
21266;SDS011;10791;53.108;18.326;2023-07-16T02:54:57;10.80;;;6.30;;
21266;SDS011;10791;53.108;18.326;2023-07-16T03:00:00;7.55;;;6.00;;
21266;SDS011;10791;53.108;18.326;2023-07-16T03:05:03;8.52;;;6.28;;
21266;SDS011;10791;53.108;18.326;2023-07-16T03:10:07;8.57;;;7.53;;
21266;SDS011;10791;53.108;18.326;2023-07-16T03:15:10;8.73;;;7.05;;
21266;SDS011;10791;53.108;18.326;2023-07-16T03:20:13;7.85;;;6.40;;
21266;SDS011;10791;53.108;18.326;2023-07-16T03:25:17;8.82;;;6.35;;
21266;SDS011;10791;53.108;18.326;2023-07-16T03:30:20;9.05;;;6.78;;
21266;SDS011;10791;53.108;18.326;2023-07-16T03:35:23;8.50;;;6.93;;
21266;SDS011;10791;53.108;18.326;2023-07-16T03:40:27;8.57;;;6.18;;
21266;SDS011;10791;53.108;18.326;2023-07-16T03:45:30;8.25;;;6.28;;
21266;SDS011;10791;53.108;18.326;2023-07-16T03:50:34;9.82;;;8.10;;
21266;SDS011;10791;53.108;18.326;2023-07-16T03:55:37;13.82;;;7.68;;
21266;SDS011;10791;53.108;18.326;2023-07-16T04:00:40;11.13;;;7.35;;
21266;SDS011;10791;53.108;18.326;2023-07-16T04:05:44;8.65;;;6.50;;
21266;SDS011;10791;53.108;18.326;2023-07-16T04:10:47;8.40;;;7.07;;
21266;SDS011;10791;53.108;18.326;2023-07-16T04:15:50;8.00;;;6.28;;
21266;SDS011;10791;53.108;18.326;2023-07-16T04:20:55;9.38;;;6.95;;
21266;SDS011;10791;53.108;18.326;2023-07-16T04:25:58;8.02;;;6.20;;
21266;SDS011;10791;53.108;18.326;2023-07-16T04:31:02;6.57;;;5.65;;
21266;SDS011;10791;53.108;18.326;2023-07-16T04:36:05;8.45;;;6.28;;
21266;SDS011;10791;53.108;18.326;2023-07-16T04:41:08;9.55;;;5.72;;
21266;SDS011;10791;53.108;18.326;2023-07-16T04:46:11;9.15;;;6.68;;
21266;SDS011;10791;53.108;18.326;2023-07-16T04:51:15;7.22;;;5.68;;
21266;SDS011;10791;53.108;18.326;2023-07-16T04:56:18;7.40;;;5.55;;
21266;SDS011;10791;53.108;18.326;2023-07-16T05:01:21;9.13;;;6.45;;
21266;SDS011;10791;53.108;18.326;2023-07-16T05:06:25;7.97;;;5.93;;
21266;SDS011;10791;53.108;18.326;2023-07-16T05:11:28;6.18;;;5.00;;
21266;SDS011;10791;53.108;18.326;2023-07-16T05:16:31;6.25;;;5.05;;
21266;SDS011;10791;53.108;18.326;2023-07-16T05:21:34;9.15;;;5.28;;
21266;SDS011;10791;53.108;18.326;2023-07-16T05:26:37;6.38;;;5.25;;
21266;SDS011;10791;53.108;18.326;2023-07-16T05:31:42;8.05;;;5.93;;
21266;SDS011;10791;53.108;18.326;2023-07-16T05:36:46;6.70;;;5.65;;
21266;SDS011;10791;53.108;18.326;2023-07-16T05:41:49;8.77;;;6.22;;
21266;SDS011;10791;53.108;18.326;2023-07-16T05:46:52;6.97;;;5.50;;
21266;SDS011;10791;53.108;18.326;2023-07-16T05:51:55;7.88;;;5.30;;
21266;SDS011;10791;53.108;18.326;2023-07-16T05:56:59;9.25;;;6.22;;
21266;SDS011;10791;53.108;18.326;2023-07-16T06:02:03;6.28;;;5.35;;
21266;SDS011;10791;53.108;18.326;2023-07-16T06:07:07;7.95;;;5.35;;
21266;SDS011;10791;53.108;18.326;2023-07-16T06:12:10;7.85;;;4.80;;
21266;SDS011;10791;53.108;18.326;2023-07-16T06:17:13;10.52;;;5.43;;
21266;SDS011;10791;53.108;18.326;2023-07-16T06:22:17;5.85;;;4.57;;
21266;SDS011;10791;53.108;18.326;2023-07-16T06:27:20;6.55;;;5.55;;
21266;SDS011;10791;53.108;18.326;2023-07-16T06:32:24;5.40;;;4.75;;
21266;SDS011;10791;53.108;18.326;2023-07-16T06:37:27;7.00;;;5.55;;
21266;SDS011;10791;53.108;18.326;2023-07-16T06:42:30;6.35;;;4.93;;
21266;SDS011;10791;53.108;18.326;2023-07-16T06:47:33;5.82;;;4.97;;
21266;SDS011;10791;53.108;18.326;2023-07-16T06:52:36;8.10;;;4.95;;
21266;SDS011;10791;53.108;18.326;2023-07-16T06:57:39;8.68;;;5.30;;
21266;SDS011;10791;53.108;18.326;2023-07-16T07:02:43;6.68;;;5.20;;
21266;SDS011;10791;53.108;18.326;2023-07-16T07:07:46;5.97;;;4.78;;
21266;SDS011;10791;53.108;18.326;2023-07-16T07:12:50;5.05;;;3.97;;
21266;SDS011;10791;53.108;18.326;2023-07-16T07:17:53;5.70;;;3.97;;
21266;SDS011;10791;53.108;18.326;2023-07-16T07:22:56;5.43;;;4.40;;
21266;SDS011;10791;53.108;18.326;2023-07-16T07:28:02;5.18;;;3.72;;
21266;SDS011;10791;53.108;18.326;2023-07-16T07:33:06;9.00;;;4.05;;
21266;SDS011;10791;53.108;18.326;2023-07-16T07:38:09;6.45;;;3.72;;
21266;SDS011;10791;53.108;18.326;2023-07-16T07:43:12;7.30;;;3.20;;
21266;SDS011;10791;53.108;18.326;2023-07-16T07:48:16;4.05;;;3.08;;
21266;SDS011;10791;53.108;18.326;2023-07-16T07:53:19;5.40;;;2.95;;
21266;SDS011;10791;53.108;18.326;2023-07-16T07:58:23;5.45;;;3.03;;
21266;SDS011;10791;53.108;18.326;2023-07-16T08:03:26;3.58;;;2.72;;
21266;SDS011;10791;53.108;18.326;2023-07-16T08:08:30;4.97;;;2.53;;
21266;SDS011;10791;53.108;18.326;2023-07-16T08:13:33;5.15;;;3.22;;
21266;SDS011;10791;53.108;18.326;2023-07-16T08:18:36;3.53;;;2.58;;
21266;SDS011;10791;53.108;18.326;2023-07-16T08:23:39;3.30;;;2.67;;
21266;SDS011;10791;53.108;18.326;2023-07-16T08:28:42;2.88;;;2.42;;
21266;SDS011;10791;53.108;18.326;2023-07-16T08:33:46;2.67;;;2.22;;
21266;SDS011;10791;53.108;18.326;2023-07-16T08:38:49;3.08;;;2.17;;
21266;SDS011;10791;53.108;18.326;2023-07-16T08:43:53;6.50;;;2.72;;
21266;SDS011;10791;53.108;18.326;2023-07-16T08:48:57;2.97;;;2.17;;
21266;SDS011;10791;53.108;18.326;2023-07-16T08:54:03;4.38;;;2.63;;
21266;SDS011;10791;53.108;18.326;2023-07-16T08:59:06;4.68;;;1.98;;
21266;SDS011;10791;53.108;18.326;2023-07-16T09:04:10;4.38;;;1.92;;
21266;SDS011;10791;53.108;18.326;2023-07-16T09:09:21;2.60;;;1.63;;
21266;SDS011;10791;53.108;18.326;2023-07-16T09:14:25;2.45;;;1.17;;
21266;SDS011;10791;53.108;18.326;2023-07-16T09:19:31;3.05;;;1.10;;
21266;SDS011;10791;53.108;18.326;2023-07-16T09:24:35;2.55;;;1.38;;
21266;SDS011;10791;53.108;18.326;2023-07-16T09:29:39;3.13;;;1.50;;
21266;SDS011;10791;53.108;18.326;2023-07-16T09:34:42;1.80;;;0.98;;
21266;SDS011;10791;53.108;18.326;2023-07-16T09:39:47;3.60;;;1.30;;
21266;SDS011;10791;53.108;18.326;2023-07-16T09:45:17;2.47;;;1.10;;
21266;SDS011;10791;53.108;18.326;2023-07-16T09:50:24;2.53;;;1.20;;
21266;SDS011;10791;53.108;18.326;2023-07-16T09:55:32;3.95;;;1.00;;
21266;SDS011;10791;53.108;18.326;2023-07-16T10:00:38;1.67;;;0.90;;
21266;SDS011;10791;53.108;18.326;2023-07-16T10:05:45;5.15;;;0.95;;
21266;SDS011;10791;53.108;18.326;2023-07-16T10:10:52;3.63;;;1.35;;
21266;SDS011;10791;53.108;18.326;2023-07-16T10:16:02;1.70;;;1.08;;
21266;SDS011;10791;53.108;18.326;2023-07-16T10:21:08;4.38;;;1.50;;
21266;SDS011;10791;53.108;18.326;2023-07-16T10:26:14;2.45;;;1.42;;
21266;SDS011;10791;53.108;18.326;2023-07-16T10:31:24;3.67;;;1.60;;
21266;SDS011;10791;53.108;18.326;2023-07-16T10:36:29;4.03;;;1.77;;
21266;SDS011;10791;53.108;18.326;2023-07-16T10:41:35;3.42;;;1.48;;
21266;SDS011;10791;53.108;18.326;2023-07-16T10:46:38;5.28;;;1.45;;
21266;SDS011;10791;53.108;18.326;2023-07-16T10:51:44;2.42;;;1.50;;
21266;SDS011;10791;53.108;18.326;2023-07-16T10:56:47;1.73;;;1.20;;
21266;SDS011;10791;53.108;18.326;2023-07-16T11:01:59;1.98;;;1.33;;
21266;SDS011;10791;53.108;18.326;2023-07-16T11:07:18;2.22;;;1.70;;
21266;SDS011;10791;53.108;18.326;2023-07-16T11:12:24;2.28;;;1.67;;
21266;SDS011;10791;53.108;18.326;2023-07-16T11:17:29;5.47;;;1.88;;
21266;SDS011;10791;53.108;18.326;2023-07-16T11:22:36;2.83;;;1.75;;
21266;SDS011;10791;53.108;18.326;2023-07-16T11:27:41;2.38;;;1.63;;
21266;SDS011;10791;53.108;18.326;2023-07-16T11:32:48;2.97;;;1.67;;
21266;SDS011;10791;53.108;18.326;2023-07-16T11:37:52;4.30;;;2.05;;
21266;SDS011;10791;53.108;18.326;2023-07-16T11:42:57;4.57;;;1.77;;
21266;SDS011;10791;53.108;18.326;2023-07-16T11:48:00;2.17;;;1.67;;
21266;SDS011;10791;53.108;18.326;2023-07-16T11:53:03;2.80;;;1.80;;
21266;SDS011;10791;53.108;18.326;2023-07-16T11:58:07;3.33;;;1.50;;
21266;SDS011;10791;53.108;18.326;2023-07-16T12:03:10;2.00;;;1.58;;
21266;SDS011;10791;53.108;18.326;2023-07-16T12:08:14;2.40;;;1.60;;
21266;SDS011;10791;53.108;18.326;2023-07-16T12:13:17;1.65;;;0.98;;
21266;SDS011;10791;53.108;18.326;2023-07-16T12:18:20;1.83;;;1.00;;
21266;SDS011;10791;53.108;18.326;2023-07-16T12:23:24;1.50;;;1.00;;
21266;SDS011;10791;53.108;18.326;2023-07-16T12:28:34;2.13;;;1.30;;
21266;SDS011;10791;53.108;18.326;2023-07-16T12:33:37;1.58;;;1.00;;
21266;SDS011;10791;53.108;18.326;2023-07-16T12:38:41;2.25;;;1.27;;
21266;SDS011;10791;53.108;18.326;2023-07-16T12:43:44;2.67;;;1.60;;
21266;SDS011;10791;53.108;18.326;2023-07-16T12:48:48;2.22;;;1.30;;
21266;SDS011;10791;53.108;18.326;2023-07-16T12:53:51;3.17;;;1.60;;
21266;SDS011;10791;53.108;18.326;2023-07-16T12:58:55;2.72;;;1.50;;
21266;SDS011;10791;53.108;18.326;2023-07-16T13:03:58;1.98;;;1.25;;
21266;SDS011;10791;53.108;18.326;2023-07-16T13:09:02;2.00;;;1.52;;
21266;SDS011;10791;53.108;18.326;2023-07-16T13:14:08;2.92;;;1.83;;
21266;SDS011;10791;53.108;18.326;2023-07-16T13:19:12;2.25;;;1.60;;
21266;SDS011;10791;53.108;18.326;2023-07-16T13:24:15;3.38;;;1.65;;
21266;SDS011;10791;53.108;18.326;2023-07-16T13:29:19;2.75;;;1.80;;
21266;SDS011;10791;53.108;18.326;2023-07-16T13:34:23;5.88;;;2.00;;
21266;SDS011;10791;53.108;18.326;2023-07-16T13:39:26;3.55;;;1.70;;
21266;SDS011;10791;53.108;18.326;2023-07-16T13:44:30;2.67;;;1.63;;
21266;SDS011;10791;53.108;18.326;2023-07-16T13:49:34;2.83;;;1.50;;
21266;SDS011;10791;53.108;18.326;2023-07-16T13:54:38;2.28;;;1.63;;
21266;SDS011;10791;53.108;18.326;2023-07-16T13:59:43;3.13;;;1.58;;
21266;SDS011;10791;53.108;18.326;2023-07-16T14:04:46;2.35;;;1.58;;
21266;SDS011;10791;53.108;18.326;2023-07-16T14:09:51;3.03;;;1.70;;
21266;SDS011;10791;53.108;18.326;2023-07-16T14:14:57;1.90;;;1.50;;
21266;SDS011;10791;53.108;18.326;2023-07-16T14:20:02;2.80;;;1.60;;
21266;SDS011;10791;53.108;18.326;2023-07-16T14:25:06;2.65;;;1.60;;
21266;SDS011;10791;53.108;18.326;2023-07-16T14:30:11;1.88;;;1.38;;
21266;SDS011;10791;53.108;18.326;2023-07-16T14:35:15;2.60;;;1.70;;
21266;SDS011;10791;53.108;18.326;2023-07-16T14:40:38;2.10;;;1.50;;
21266;SDS011;10791;53.108;18.326;2023-07-16T14:45:41;3.35;;;1.85;;
21266;SDS011;10791;53.108;18.326;2023-07-16T14:50:48;2.03;;;1.67;;
21266;SDS011;10791;53.108;18.326;2023-07-16T14:55:53;4.57;;;1.88;;
21266;SDS011;10791;53.108;18.326;2023-07-16T15:00:59;2.47;;;1.48;;
21266;SDS011;10791;53.108;18.326;2023-07-16T15:06:04;5.30;;;1.80;;
21266;SDS011;10791;53.108;18.326;2023-07-16T15:11:07;3.65;;;1.80;;
21266;SDS011;10791;53.108;18.326;2023-07-16T15:16:11;1.92;;;1.55;;
21266;SDS011;10791;53.108;18.326;2023-07-16T15:21:18;2.10;;;1.75;;
21266;SDS011;10791;53.108;18.326;2023-07-16T15:26:24;2.20;;;1.60;;
21266;SDS011;10791;53.108;18.326;2023-07-16T15:31:31;3.70;;;1.65;;
21266;SDS011;10791;53.108;18.326;2023-07-16T15:36:35;2.13;;;1.60;;
21266;SDS011;10791;53.108;18.326;2023-07-16T15:41:40;2.13;;;1.48;;
21266;SDS011;10791;53.108;18.326;2023-07-16T15:46:44;2.78;;;1.80;;
21266;SDS011;10791;53.108;18.326;2023-07-16T15:51:48;2.17;;;1.65;;
21266;SDS011;10791;53.108;18.326;2023-07-16T15:56:53;2.38;;;1.70;;
21266;SDS011;10791;53.108;18.326;2023-07-16T16:01:57;2.25;;;1.50;;
21266;SDS011;10791;53.108;18.326;2023-07-16T16:07:01;2.03;;;1.20;;
21266;SDS011;10791;53.108;18.326;2023-07-16T16:12:06;1.30;;;1.00;;
21266;SDS011;10791;53.108;18.326;2023-07-16T16:17:10;3.55;;;1.70;;
21266;SDS011;10791;53.108;18.326;2023-07-16T16:22:15;2.47;;;1.40;;
21266;SDS011;10791;53.108;18.326;2023-07-16T16:27:19;1.83;;;1.33;;
21266;SDS011;10791;53.108;18.326;2023-07-16T16:32:23;2.50;;;1.42;;
21266;SDS011;10791;53.108;18.326;2023-07-16T16:37:26;1.92;;;1.38;;
21266;SDS011;10791;53.108;18.326;2023-07-16T16:42:30;1.83;;;1.30;;
21266;SDS011;10791;53.108;18.326;2023-07-16T16:47:34;4.03;;;1.60;;
21266;SDS011;10791;53.108;18.326;2023-07-16T16:52:38;3.05;;;1.48;;
21266;SDS011;10791;53.108;18.326;2023-07-16T16:57:44;1.98;;;1.25;;
21266;SDS011;10791;53.108;18.326;2023-07-16T17:02:48;1.95;;;1.38;;
21266;SDS011;10791;53.108;18.326;2023-07-16T17:07:52;1.90;;;1.42;;
21266;SDS011;10791;53.108;18.326;2023-07-16T17:12:55;4.68;;;1.40;;
21266;SDS011;10791;53.108;18.326;2023-07-16T17:18:01;3.40;;;1.55;;
21266;SDS011;10791;53.108;18.326;2023-07-16T17:23:09;2.42;;;1.38;;
21266;SDS011;10791;53.108;18.326;2023-07-16T17:28:13;2.42;;;1.67;;
21266;SDS011;10791;53.108;18.326;2023-07-16T17:33:17;2.25;;;1.40;;
21266;SDS011;10791;53.108;18.326;2023-07-16T17:38:20;2.67;;;1.88;;
21266;SDS011;10791;53.108;18.326;2023-07-16T17:43:24;2.10;;;1.50;;
21266;SDS011;10791;53.108;18.326;2023-07-16T17:48:27;6.03;;;1.58;;
21266;SDS011;10791;53.108;18.326;2023-07-16T17:53:35;1.58;;;1.38;;
21266;SDS011;10791;53.108;18.326;2023-07-16T17:58:40;2.80;;;1.73;;
21266;SDS011;10791;53.108;18.326;2023-07-16T18:03:43;2.17;;;1.45;;
21266;SDS011;10791;53.108;18.326;2023-07-16T18:08:47;2.88;;;1.65;;
21266;SDS011;10791;53.108;18.326;2023-07-16T18:13:51;2.30;;;1.60;;
21266;SDS011;10791;53.108;18.326;2023-07-16T18:18:54;4.18;;;1.48;;
21266;SDS011;10791;53.108;18.326;2023-07-16T18:23:58;2.85;;;1.77;;
21266;SDS011;10791;53.108;18.326;2023-07-16T18:29:02;3.13;;;1.77;;
21266;SDS011;10791;53.108;18.326;2023-07-16T18:34:06;2.65;;;1.73;;
21266;SDS011;10791;53.108;18.326;2023-07-16T18:39:09;2.53;;;1.60;;
21266;SDS011;10791;53.108;18.326;2023-07-16T18:44:13;2.88;;;1.70;;
21266;SDS011;10791;53.108;18.326;2023-07-16T18:49:18;3.08;;;1.60;;
21266;SDS011;10791;53.108;18.326;2023-07-16T18:54:21;3.22;;;1.75;;
21266;SDS011;10791;53.108;18.326;2023-07-16T18:59:26;3.70;;;1.75;;
21266;SDS011;10791;53.108;18.326;2023-07-16T19:04:34;5.97;;;1.83;;
21266;SDS011;10791;53.108;18.326;2023-07-16T19:09:39;2.47;;;1.67;;
21266;SDS011;10791;53.108;18.326;2023-07-16T19:14:43;4.20;;;1.90;;
21266;SDS011;10791;53.108;18.326;2023-07-16T19:19:48;3.08;;;1.75;;
21266;SDS011;10791;53.108;18.326;2023-07-16T19:24:52;6.15;;;2.15;;
21266;SDS011;10791;53.108;18.326;2023-07-16T19:29:56;4.38;;;2.60;;
21266;SDS011;10791;53.108;18.326;2023-07-16T19:35:00;4.50;;;2.50;;
21266;SDS011;10791;53.108;18.326;2023-07-16T19:40:05;7.75;;;3.05;;
21266;SDS011;10791;53.108;18.326;2023-07-16T19:45:12;19.42;;;7.70;;
21266;SDS011;10791;53.108;18.326;2023-07-16T19:50:17;8.60;;;4.72;;
21266;SDS011;10791;53.108;18.326;2023-07-16T19:55:21;12.18;;;4.63;;
21266;SDS011;10791;53.108;18.326;2023-07-16T20:00:26;7.60;;;3.63;;
21266;SDS011;10791;53.108;18.326;2023-07-16T20:05:35;7.68;;;3.72;;
21266;SDS011;10791;53.108;18.326;2023-07-16T20:10:45;3.67;;;2.10;;
21266;SDS011;10791;53.108;18.326;2023-07-16T20:15:50;4.05;;;2.17;;
21266;SDS011;10791;53.108;18.326;2023-07-16T20:20:57;3.97;;;2.65;;
21266;SDS011;10791;53.108;18.326;2023-07-16T20:26:03;4.45;;;2.35;;
21266;SDS011;10791;53.108;18.326;2023-07-16T20:31:09;3.85;;;2.40;;
21266;SDS011;10791;53.108;18.326;2023-07-16T20:36:13;3.53;;;2.05;;
21266;SDS011;10791;53.108;18.326;2023-07-16T20:41:18;5.72;;;2.55;;
21266;SDS011;10791;53.108;18.326;2023-07-16T20:46:23;4.93;;;2.35;;
21266;SDS011;10791;53.108;18.326;2023-07-16T20:51:27;4.50;;;2.38;;
21266;SDS011;10791;53.108;18.326;2023-07-16T20:56:32;6.72;;;2.85;;
21266;SDS011;10791;53.108;18.326;2023-07-16T21:01:36;5.82;;;2.80;;
21266;SDS011;10791;53.108;18.326;2023-07-16T21:06:39;4.13;;;2.35;;
21266;SDS011;10791;53.108;18.326;2023-07-16T21:11:42;3.78;;;2.63;;
21266;SDS011;10791;53.108;18.326;2023-07-16T21:16:45;3.00;;;2.67;;
21266;SDS011;10791;53.108;18.326;2023-07-16T21:21:49;4.13;;;3.10;;
21266;SDS011;10791;53.108;18.326;2023-07-16T21:26:52;4.45;;;3.40;;
21266;SDS011;10791;53.108;18.326;2023-07-16T21:31:56;4.32;;;2.95;;
21266;SDS011;10791;53.108;18.326;2023-07-16T21:36:59;5.25;;;3.00;;
21266;SDS011;10791;53.108;18.326;2023-07-16T21:42:02;4.97;;;3.15;;
21266;SDS011;10791;53.108;18.326;2023-07-16T21:47:06;4.97;;;2.67;;
21266;SDS011;10791;53.108;18.326;2023-07-16T21:52:09;3.97;;;2.30;;
21266;SDS011;10791;53.108;18.326;2023-07-16T21:57:12;3.55;;;2.10;;
21266;SDS011;10791;53.108;18.326;2023-07-16T22:02:16;4.28;;;2.50;;
21266;SDS011;10791;53.108;18.326;2023-07-16T22:07:19;3.97;;;2.75;;
21266;SDS011;10791;53.108;18.326;2023-07-16T22:12:24;4.80;;;2.75;;
21266;SDS011;10791;53.108;18.326;2023-07-16T22:17:28;4.85;;;2.65;;
21266;SDS011;10791;53.108;18.326;2023-07-16T22:22:31;5.18;;;2.78;;
21266;SDS011;10791;53.108;18.326;2023-07-16T22:27:34;5.00;;;2.47;;
21266;SDS011;10791;53.108;18.326;2023-07-16T22:32:38;6.35;;;2.22;;
21266;SDS011;10791;53.108;18.326;2023-07-16T22:37:41;3.53;;;1.95;;
21266;SDS011;10791;53.108;18.326;2023-07-16T22:42:44;3.38;;;2.17;;
21266;SDS011;10791;53.108;18.326;2023-07-16T22:47:47;4.72;;;2.28;;
21266;SDS011;10791;53.108;18.326;2023-07-16T22:52:51;6.45;;;2.83;;
21266;SDS011;10791;53.108;18.326;2023-07-16T22:57:54;4.45;;;2.47;;
21266;SDS011;10791;53.108;18.326;2023-07-16T23:02:58;7.28;;;2.40;;
21266;SDS011;10791;53.108;18.326;2023-07-16T23:08:02;3.83;;;2.50;;
21266;SDS011;10791;53.108;18.326;2023-07-16T23:13:06;3.80;;;2.55;;
21266;SDS011;10791;53.108;18.326;2023-07-16T23:18:09;4.50;;;2.20;;
21266;SDS011;10791;53.108;18.326;2023-07-16T23:23:13;5.55;;;3.05;;
21266;SDS011;10791;53.108;18.326;2023-07-16T23:28:18;5.10;;;2.60;;
21266;SDS011;10791;53.108;18.326;2023-07-16T23:33:21;4.10;;;2.88;;
21266;SDS011;10791;53.108;18.326;2023-07-16T23:38:24;4.03;;;2.42;;
21266;SDS011;10791;53.108;18.326;2023-07-16T23:43:28;6.25;;;2.55;;
21266;SDS011;10791;53.108;18.326;2023-07-16T23:48:31;4.95;;;3.10;;
21266;SDS011;10791;53.108;18.326;2023-07-16T23:53:35;4.25;;;2.80;;
21266;SDS011;10791;53.108;18.326;2023-07-16T23:58:38;7.95;;;2.88;;
